createdAt,value
2018-06-07T00:01:27.258Z,26.10
2018-06-07T00:03:29.819Z,26.10
2018-06-07T00:05:32.408Z,26.10
2018-06-07T00:07:35.176Z,26.10
2018-06-07T00:09:37.773Z,26.20
2018-06-07T00:11:40.327Z,26.20
2018-06-07T00:13:43.010Z,26.20
2018-06-07T00:15:45.559Z,26.20
2018-06-07T00:17:48.117Z,26.20
2018-06-07T00:19:50.825Z,26.20
2018-06-07T00:21:53.371Z,26.20
2018-06-07T00:23:56.001Z,26.20
2018-06-07T00:26:00.097Z,26.20
2018-06-07T00:28:02.691Z,26.20
2018-06-07T00:30:05.335Z,26.20
2018-06-07T00:32:07.920Z,26.20
2018-06-07T00:34:10.462Z,26.20
2018-06-07T00:36:13.165Z,26.10
2018-06-07T00:38:15.957Z,26.20
2018-06-07T00:40:18.504Z,26.20
2018-06-07T00:42:21.077Z,26.20
2018-06-07T00:44:23.753Z,26.20
2018-06-07T00:46:26.313Z,26.20
2018-06-07T00:48:28.904Z,26.20
2018-06-07T00:50:31.698Z,26.20
2018-06-07T00:52:34.289Z,26.20
2018-06-07T00:54:36.836Z,26.20
2018-06-07T00:57:01.421Z,26.10
2018-06-07T00:59:03.974Z,26.10
2018-06-07T01:01:06.577Z,26.00
2018-06-07T01:03:09.645Z,26.00
2018-06-07T01:05:12.192Z,26.00
2018-06-07T01:07:14.835Z,26.00
2018-06-07T01:09:17.405Z,26.00
2018-06-07T01:11:20.082Z,26.10
2018-06-07T01:13:22.741Z,26.00
2018-06-07T01:15:25.326Z,26.00
2018-06-07T01:17:28.026Z,26.00
2018-06-07T01:19:30.533Z,26.00
2018-06-07T01:21:33.124Z,26.00
2018-06-07T01:23:35.682Z,26.00
2018-06-07T02:09:53.546Z,25.10
2018-06-07T02:29:49.595Z,24.20
2018-06-07T02:49:49.248Z,24.10
2018-06-07T03:09:49.817Z,24.10
2018-06-07T03:22:01.808Z,24.00
2018-06-07T03:39:47.323Z,23.50
2018-06-07T03:52:00.170Z,23.60
2018-06-07T04:30:30.868Z,24.20
2018-06-07T04:49:50.645Z,23.90
2018-06-07T05:09:49.700Z,23.90
2018-06-07T05:22:25.924Z,23.90
2018-06-07T05:24:28.501Z,23.90
2018-06-07T05:26:31.052Z,24.00
2018-06-07T05:28:33.628Z,24.10
2018-06-07T05:30:36.326Z,24.20
2018-06-07T05:32:39.001Z,24.40
2018-06-07T05:34:41.778Z,24.50
2018-06-07T05:36:44.333Z,24.60
2018-06-07T05:38:46.943Z,24.70
2018-06-07T05:40:49.501Z,24.80
2018-06-07T05:42:52.061Z,24.90
2018-06-07T05:44:54.642Z,24.90
2018-06-07T05:46:57.217Z,25.00
2018-06-07T05:48:59.765Z,25.00
2018-06-07T05:51:02.317Z,25.10
2018-06-07T05:53:04.902Z,25.10
2018-06-07T05:55:07.454Z,25.10
2018-06-07T05:57:10.770Z,25.20
2018-06-07T05:59:13.353Z,25.20
2018-06-07T06:01:15.936Z,25.30
2018-06-07T06:03:18.521Z,25.30
2018-06-07T06:05:21.113Z,25.30
2018-06-07T06:07:23.701Z,25.40
2018-06-07T06:09:26.405Z,25.40
2018-06-07T06:11:28.983Z,25.40
2018-06-07T06:13:31.593Z,25.50
2018-06-07T06:15:34.160Z,25.50
2018-06-07T06:17:37.187Z,25.50
2018-06-07T06:19:39.755Z,25.60
2018-06-07T06:21:42.410Z,25.50
2018-06-07T06:23:45.207Z,25.60
2018-06-07T06:25:47.785Z,25.60
2018-06-07T06:27:50.357Z,25.60
2018-06-07T06:29:52.905Z,25.60
2018-06-07T06:31:55.469Z,25.60
2018-06-07T06:33:58.024Z,25.70
2018-06-07T06:36:00.592Z,25.70
2018-06-07T06:38:03.160Z,25.70
2018-06-07T06:40:05.765Z,25.70
2018-06-07T06:42:08.364Z,25.80
2018-06-07T06:44:10.910Z,25.80
2018-06-07T06:46:13.513Z,25.80
2018-06-07T06:48:16.078Z,25.90
2018-06-07T06:50:18.621Z,25.90
2018-06-07T06:52:21.172Z,25.90
2018-06-07T06:54:26.775Z,26.00
2018-06-07T06:56:29.310Z,26.00
2018-06-07T06:58:31.865Z,26.00
2018-06-07T07:00:34.454Z,26.00
2018-06-07T07:02:36.996Z,25.90
2018-06-07T07:04:40.312Z,25.90
2018-06-07T07:06:43.052Z,25.90
2018-06-07T07:08:46.402Z,26.00
2018-06-07T07:10:48.953Z,25.90
2018-06-07T07:12:51.546Z,26.00
2018-06-07T07:14:54.099Z,26.00
2018-06-07T07:16:56.658Z,26.00
2018-06-07T07:18:59.668Z,26.00
2018-06-07T07:21:02.240Z,26.10
2018-06-07T07:23:05.707Z,26.10
2018-06-07T07:25:08.638Z,26.10
2018-06-07T07:27:11.193Z,26.10
2018-06-07T07:29:13.776Z,26.10
2018-06-07T07:31:16.358Z,26.10
2018-06-07T07:33:18.918Z,26.10
2018-06-07T07:35:21.469Z,26.10
2018-06-07T07:37:24.170Z,26.20
2018-06-07T07:39:26.753Z,26.20
2018-06-07T07:41:29.428Z,26.30
2018-06-07T07:43:32.198Z,26.30
2018-06-07T07:45:34.798Z,26.20
2018-06-07T07:47:37.337Z,26.20
2018-06-07T07:49:39.935Z,26.30
2018-06-07T07:51:42.481Z,26.30
2018-06-07T07:53:45.054Z,26.30
2018-06-07T07:55:47.730Z,26.30
2018-06-07T07:57:50.298Z,26.30
2018-06-07T07:59:52.844Z,26.20
2018-06-07T08:01:55.437Z,26.30
2018-06-07T08:03:57.987Z,26.30
2018-06-07T08:06:00.538Z,26.30
2018-06-07T08:08:03.299Z,26.30
2018-06-07T08:10:05.848Z,26.40
2018-06-07T08:12:08.406Z,26.40
2018-06-07T08:14:10.984Z,26.50
2018-06-07T08:16:13.541Z,26.50
2018-06-07T08:18:16.097Z,26.50
2018-06-07T08:20:19.433Z,26.60
2018-06-07T08:22:21.983Z,26.60
2018-06-07T08:24:24.533Z,26.60
2018-06-07T08:26:27.876Z,26.70
2018-06-07T08:28:30.449Z,26.70
2018-06-07T08:30:33.003Z,26.70
2018-06-07T08:32:35.592Z,26.70
2018-06-07T08:34:38.141Z,26.80
2018-06-07T08:36:40.706Z,26.80
2018-06-07T08:38:43.416Z,26.80
2018-06-07T08:40:46.118Z,26.80
2018-06-07T08:42:48.682Z,26.80
2018-06-07T08:44:51.245Z,26.80
2018-06-07T08:46:53.805Z,26.80
2018-06-07T08:48:56.370Z,26.90
2018-06-07T08:51:14.002Z,26.90
2018-06-07T09:29:49.115Z,26.80
2018-06-07T10:00:04.888Z,26.80
2018-06-07T11:01:06.269Z,27.50
2018-06-07T11:19:47.508Z,27.20
2018-06-07T11:39:48.480Z,27.20
2018-06-07T11:59:50.120Z,27.30
2018-06-07T12:19:43.399Z,27.30
2018-06-07T12:39:50.195Z,27.50
2018-06-07T12:49:58.249Z,27.90
2018-06-07T13:09:55.839Z,27.60
2018-06-07T13:29:53.818Z,27.40
2018-06-07T13:41:59.105Z,27.50
2018-06-07T13:44:01.687Z,27.70
2018-06-07T13:46:05.007Z,27.90
2018-06-07T13:48:07.577Z,27.90
2018-06-07T13:50:10.141Z,28.10
2018-06-07T13:52:12.694Z,28.20
2018-06-07T13:54:16.037Z,28.50
2018-06-07T13:56:18.610Z,28.40
2018-06-07T13:58:21.164Z,28.60
2018-06-07T14:00:23.751Z,28.60
2018-06-07T14:02:26.301Z,28.70
2018-06-07T14:04:28.873Z,28.80
2018-06-07T14:06:31.470Z,28.90
2018-06-07T14:08:34.017Z,29.00
2018-06-07T14:10:36.579Z,29.10
2018-06-07T14:12:40.329Z,29.20
2018-06-07T14:14:42.877Z,29.20
2018-06-07T14:16:45.430Z,29.30
2018-06-07T14:18:48.791Z,29.40
2018-06-07T14:20:51.333Z,29.40
2018-06-07T14:22:53.882Z,29.50
2018-06-07T14:24:56.453Z,29.50
2018-06-07T14:26:59.017Z,29.60
2018-06-07T14:29:01.574Z,29.60
2018-06-07T14:31:04.915Z,29.70
2018-06-07T14:33:07.504Z,29.70
2018-06-07T14:35:10.054Z,29.70
2018-06-07T14:37:12.641Z,29.70
2018-06-07T14:39:15.194Z,29.60
2018-06-07T14:41:17.742Z,29.70
2018-06-07T14:43:21.077Z,29.70
2018-06-07T14:45:23.630Z,29.70
2018-06-07T14:47:26.205Z,29.70
2018-06-07T14:49:28.793Z,29.70
2018-06-07T14:51:31.324Z,29.70
2018-06-07T14:53:34.634Z,29.80
2018-06-07T14:55:37.203Z,29.70
2018-06-07T14:57:39.774Z,29.80
2018-06-07T14:59:42.328Z,29.80
2018-06-07T15:01:45.672Z,29.80
2018-06-07T15:03:48.217Z,29.70
2018-06-07T15:05:50.779Z,29.80
2018-06-07T15:07:54.121Z,29.80
2018-06-07T15:09:56.670Z,29.80
2018-06-07T15:11:59.295Z,29.80
2018-06-07T15:14:01.861Z,29.80
2018-06-07T15:16:04.420Z,29.80
2018-06-07T15:18:06.973Z,29.80
2018-06-07T15:20:09.550Z,29.80
2018-06-07T15:22:12.095Z,29.80
2018-06-07T15:24:14.679Z,29.80
2018-06-07T15:26:17.346Z,29.80
2018-06-07T15:28:19.886Z,29.80
2018-06-07T15:30:23.197Z,29.80
2018-06-07T15:32:25.781Z,29.80
2018-06-07T15:34:28.340Z,29.80
2018-06-07T15:36:31.659Z,29.80
2018-06-07T15:38:34.316Z,29.70
2018-06-07T15:40:36.879Z,29.80
2018-06-07T15:42:40.177Z,29.70
2018-06-07T15:44:43.077Z,29.80
2018-06-07T15:46:45.624Z,29.70
2018-06-07T15:48:48.169Z,29.70
2018-06-07T15:50:50.870Z,29.70
2018-06-07T15:52:54.170Z,29.80
2018-06-07T15:54:56.721Z,29.70
2018-06-07T15:57:00.067Z,29.80
2018-06-07T15:59:02.626Z,29.70
2018-06-07T16:01:05.184Z,29.80
2018-06-07T16:03:07.746Z,29.80
2018-06-07T16:05:11.130Z,29.80
2018-06-07T16:07:13.667Z,29.80
2018-06-07T16:09:16.242Z,29.80
2018-06-07T16:11:18.857Z,29.90
2018-06-07T16:13:22.180Z,29.90
2018-06-07T16:15:24.769Z,29.90
2018-06-07T16:17:27.322Z,29.90
2018-06-07T16:19:29.889Z,29.90
2018-06-07T16:21:32.473Z,29.90
2018-06-07T16:23:35.024Z,30.00
2018-06-07T16:25:37.580Z,30.00
2018-06-07T16:27:40.920Z,30.10
2018-06-07T16:29:43.465Z,30.00
2018-06-07T16:31:46.012Z,30.10
2018-06-07T16:33:49.349Z,30.10
2018-06-07T16:35:51.905Z,30.10
2018-06-07T16:37:54.448Z,30.10
2018-06-07T16:39:57.810Z,30.10
2018-06-07T16:42:00.359Z,30.10
2018-06-07T16:44:02.934Z,30.20
2018-06-07T16:46:05.562Z,30.10
2018-06-07T16:48:08.093Z,30.10
2018-06-07T16:50:10.650Z,30.10
2018-06-07T16:52:13.549Z,30.10
2018-06-07T16:54:16.113Z,30.00
2018-06-07T16:56:18.657Z,30.00
2018-06-07T16:58:21.296Z,29.90
2018-06-07T17:00:25.406Z,29.90
2018-06-07T17:02:27.970Z,29.80
2018-06-07T17:04:30.685Z,29.80
2018-06-07T17:06:34.014Z,29.60
2018-06-07T17:08:41.751Z,29.60
2018-06-07T17:10:44.602Z,29.50
2018-06-07T17:12:47.165Z,29.50
2018-06-07T17:14:49.700Z,29.40
2018-06-07T17:16:52.315Z,29.30
2018-06-07T17:18:54.876Z,29.30
2018-06-07T17:20:57.426Z,29.20
2018-06-07T17:23:00.436Z,29.20
2018-06-07T17:25:02.967Z,29.20
2018-06-07T17:27:06.277Z,29.10
2018-06-07T17:29:09.185Z,29.10
2018-06-07T17:31:11.757Z,29.10
2018-06-07T17:33:14.317Z,29.10
2018-06-07T17:35:16.889Z,29.00
2018-06-07T17:37:19.437Z,29.00
2018-06-07T17:39:22.752Z,29.00
2018-06-07T17:41:25.324Z,28.90
2018-06-07T17:43:27.869Z,28.90
2018-06-07T17:45:31.181Z,28.80
2018-06-07T17:47:34.125Z,28.80
2018-06-07T17:49:36.662Z,28.70
2018-06-07T17:51:39.204Z,28.70
2018-06-07T17:53:41.793Z,28.70
2018-06-07T17:55:44.354Z,28.60
2018-06-07T17:57:46.897Z,28.60
2018-06-07T17:59:50.234Z,28.60
2018-06-07T18:01:52.772Z,28.60
2018-06-07T18:03:56.101Z,28.50
2018-06-07T18:05:58.682Z,28.40
2018-06-07T18:08:01.226Z,28.40
2018-06-07T18:10:03.774Z,28.40
2018-06-07T18:12:07.263Z,28.40
2018-06-07T18:14:09.793Z,28.40
2018-06-07T18:16:12.339Z,28.40
2018-06-07T18:18:14.988Z,28.30
2018-06-07T18:20:17.497Z,28.30
2018-06-07T18:22:20.141Z,28.30
2018-06-07T18:24:23.508Z,28.20
2018-06-07T18:26:26.054Z,28.20
2018-06-07T18:28:28.649Z,28.20
2018-06-07T18:30:31.230Z,28.10
2018-06-07T18:32:33.772Z,28.10
2018-06-07T18:34:36.345Z,28.00
2018-06-07T18:36:39.602Z,27.90
2018-06-07T18:38:42.217Z,27.90
2018-06-07T18:40:44.761Z,27.90
2018-06-07T18:42:47.330Z,27.80
2018-06-07T18:44:49.937Z,27.80
2018-06-07T18:46:52.481Z,27.90
2018-06-07T18:48:55.124Z,27.90
2018-06-07T18:50:57.605Z,27.90
2018-06-07T18:53:01.083Z,27.90
2018-06-07T18:55:04.516Z,28.00
2018-06-07T18:57:07.454Z,27.90
2018-06-07T18:59:10.059Z,28.00
2018-06-07T19:01:13.405Z,27.90
2018-06-07T19:03:16.065Z,27.90
2018-06-07T19:05:18.635Z,27.90
2018-06-07T19:07:21.292Z,27.90
2018-06-07T19:09:23.863Z,27.80
2018-06-07T19:11:26.416Z,27.80
2018-06-07T19:13:29.343Z,27.80
2018-06-07T19:15:31.932Z,27.80
2018-06-07T19:17:34.464Z,27.80
2018-06-07T19:19:37.685Z,27.80
2018-06-07T19:21:40.245Z,27.80
2018-06-07T19:23:42.797Z,27.70
2018-06-07T19:25:46.150Z,27.70
2018-06-07T19:27:48.829Z,27.70
2018-06-07T19:29:51.535Z,27.70
2018-06-07T19:31:54.233Z,27.60
2018-06-07T19:34:13.591Z,27.60
2018-06-07T19:36:16.309Z,27.50
2018-06-07T19:38:19.261Z,27.50
2018-06-07T19:40:39.901Z,27.40
2018-06-07T19:42:42.590Z,27.40
2018-06-07T19:44:45.941Z,27.20
2018-06-07T19:46:48.492Z,27.20
2018-06-07T19:48:51.045Z,27.20
2018-06-07T19:50:53.900Z,27.20
2018-06-07T19:52:57.806Z,27.30
2018-06-07T19:55:01.398Z,27.30
2018-06-07T19:57:04.477Z,27.30
2018-06-07T19:59:07.182Z,27.30
2018-06-07T20:01:09.745Z,27.40
2018-06-07T20:03:14.146Z,27.40
2018-06-07T20:05:16.707Z,27.40
2018-06-07T20:07:20.046Z,27.50
2018-06-07T20:09:22.642Z,27.40
2018-06-07T20:11:25.361Z,27.50
2018-06-07T20:13:27.893Z,27.50
2018-06-07T20:15:30.475Z,27.50
2018-06-07T20:17:33.145Z,27.40
2018-06-07T20:19:36.512Z,27.40
2018-06-07T20:21:39.822Z,27.40
2018-06-07T20:23:42.406Z,27.40
2018-06-07T20:25:44.965Z,27.30
2018-06-07T20:27:47.559Z,27.30
2018-06-07T20:29:50.099Z,27.30
2018-06-07T20:31:53.144Z,27.30
2018-06-07T20:33:56.520Z,27.30
2018-06-07T20:35:59.173Z,27.30
2018-06-07T20:38:01.789Z,27.30
2018-06-07T20:40:05.653Z,27.30
2018-06-07T20:42:09.050Z,27.20
2018-06-07T20:44:11.861Z,27.20
2018-06-07T20:46:14.488Z,27.20
2018-06-07T20:48:17.037Z,27.20
2018-06-07T20:50:19.956Z,27.10
2018-06-07T20:52:22.921Z,27.10
2018-06-07T20:54:25.470Z,27.10
2018-06-07T20:56:29.431Z,27.00
2018-06-07T20:58:32.332Z,27.00
2018-06-07T21:00:34.881Z,26.90
2018-06-07T21:02:37.890Z,26.90
2018-06-07T21:04:40.527Z,26.90
2018-06-07T21:06:43.069Z,26.90
2018-06-07T21:08:45.617Z,26.90
2018-06-07T21:10:48.953Z,26.90
2018-06-07T21:12:51.501Z,26.90
2018-06-07T21:14:54.050Z,26.90
2018-06-07T21:16:57.496Z,26.90
2018-06-07T21:19:00.042Z,26.90
2018-06-07T21:21:02.589Z,27.00
2018-06-07T21:23:05.928Z,26.90
2018-06-07T21:25:08.477Z,26.90
2018-06-07T21:27:11.052Z,26.90
2018-06-07T21:29:14.382Z,26.90
2018-06-07T21:31:16.918Z,26.90
2018-06-07T21:33:19.485Z,26.90
2018-06-07T21:35:22.243Z,26.90
2018-06-07T21:37:24.757Z,26.90
2018-06-07T21:39:28.126Z,26.90
2018-06-07T21:41:30.850Z,26.90
2018-06-07T21:43:33.452Z,26.90
2018-06-07T21:45:35.978Z,26.90
2018-06-07T21:47:38.550Z,26.90
2018-06-07T21:49:41.101Z,26.90
2018-06-07T21:51:43.740Z,26.90
2018-06-07T21:53:46.329Z,26.90
2018-06-07T21:55:48.981Z,26.90
2018-06-07T21:57:51.674Z,26.90
2018-06-07T21:59:54.225Z,26.90
2018-06-07T22:01:56.885Z,26.90
2018-06-07T22:03:59.492Z,26.80
2018-06-07T22:06:02.169Z,26.90
2018-06-07T22:08:04.721Z,26.90
2018-06-07T22:10:07.293Z,26.90
2018-06-07T22:12:09.858Z,26.90
2018-06-07T22:14:12.400Z,26.80
2018-06-07T22:16:14.962Z,26.80
2018-06-07T22:18:17.777Z,26.80
2018-06-07T22:20:20.334Z,26.80
2018-06-07T22:22:22.870Z,26.80
2018-06-07T22:24:26.631Z,26.80
2018-06-07T22:26:29.217Z,26.80
2018-06-07T22:28:31.865Z,26.80
2018-06-07T22:30:34.563Z,26.80
2018-06-07T22:32:37.100Z,26.80
2018-06-07T22:34:39.693Z,26.80
2018-06-07T22:36:42.265Z,26.80
2018-06-07T22:38:44.828Z,26.80
2018-06-07T22:40:47.377Z,26.80
2018-06-07T22:42:49.957Z,26.70
2018-06-07T22:44:52.558Z,26.70
2018-06-07T22:46:55.109Z,26.70
2018-06-07T22:48:58.432Z,26.70
2018-06-07T22:51:00.977Z,26.70
2018-06-07T22:53:03.577Z,26.70
2018-06-07T22:55:06.149Z,26.70
2018-06-07T22:57:08.764Z,26.60
2018-06-07T22:59:11.409Z,26.60
2018-06-07T23:01:14.180Z,26.60
2018-06-07T23:03:16.727Z,26.60
2018-06-07T23:05:19.274Z,26.60
2018-06-07T23:07:22.731Z,26.60
2018-06-07T23:09:25.292Z,26.60
2018-06-07T23:11:27.833Z,26.60
2018-06-07T23:13:30.541Z,26.60
2018-06-07T23:15:33.129Z,26.50
2018-06-07T23:17:37.221Z,26.50
2018-06-07T23:19:40.614Z,26.50
2018-06-07T23:21:43.164Z,26.50
2018-06-07T23:23:45.714Z,26.50
2018-06-07T23:25:49.049Z,26.40
2018-06-07T23:27:51.598Z,26.40
2018-06-07T23:29:54.146Z,26.40
2018-06-07T23:31:57.477Z,26.40
2018-06-07T23:34:00.042Z,26.40
2018-06-07T23:36:02.652Z,26.30
2018-06-07T23:38:05.428Z,26.30
2018-06-07T23:40:07.996Z,26.30
2018-06-07T23:42:10.541Z,26.30
2018-06-07T23:44:13.150Z,26.30
2018-06-07T23:46:15.725Z,26.20
2018-06-07T23:48:18.273Z,26.20
2018-06-07T23:50:20.955Z,26.20
2018-06-07T23:52:23.552Z,26.20
2018-06-07T23:54:26.098Z,26.10
2018-06-07T23:56:28.777Z,26.10
2018-06-07T23:58:31.453Z,26.00
